sensor_id;sensor_type;location;lat;lon;timestamp;P1;durP1;ratioP1;P2;durP2;ratioP2
72569;SDS011;60594;50.204;8.844;2022-12-18T00:01:58;8.38;;;4.28;;
72569;SDS011;60594;50.204;8.844;2022-12-18T00:04:26;2.92;;;1.48;;
72569;SDS011;60594;50.204;8.844;2022-12-18T00:06:53;5.18;;;4.47;;
72569;SDS011;60594;50.204;8.844;2022-12-18T00:09:20;8.95;;;5.13;;
72569;SDS011;60594;50.204;8.844;2022-12-18T00:11:47;6.30;;;5.07;;
72569;SDS011;60594;50.204;8.844;2022-12-18T00:14:13;3.92;;;3.63;;
72569;SDS011;60594;50.204;8.844;2022-12-18T00:16:43;8.45;;;4.88;;
72569;SDS011;60594;50.204;8.844;2022-12-18T00:21:36;7.20;;;3.85;;
72569;SDS011;60594;50.204;8.844;2022-12-18T00:24:02;4.30;;;3.15;;
72569;SDS011;60594;50.204;8.844;2022-12-18T00:26:30;5.85;;;3.85;;
72569;SDS011;60594;50.204;8.844;2022-12-18T00:29:10;9.23;;;4.68;;
72569;SDS011;60594;50.204;8.844;2022-12-18T00:31:40;4.53;;;4.07;;
72569;SDS011;60594;50.204;8.844;2022-12-18T00:34:09;4.20;;;3.45;;
72569;SDS011;60594;50.204;8.844;2022-12-18T00:36:40;7.35;;;3.78;;
72569;SDS011;60594;50.204;8.844;2022-12-18T00:39:07;4.38;;;3.92;;
72569;SDS011;60594;50.204;8.844;2022-12-18T00:41:34;3.92;;;3.42;;
72569;SDS011;60594;50.204;8.844;2022-12-18T00:44:19;3.55;;;2.15;;
72569;SDS011;60594;50.204;8.844;2022-12-18T00:46:46;2.80;;;2.60;;
72569;SDS011;60594;50.204;8.844;2022-12-18T00:49:14;3.97;;;3.53;;
72569;SDS011;60594;50.204;8.844;2022-12-18T00:51:42;5.55;;;4.15;;
72569;SDS011;60594;50.204;8.844;2022-12-18T00:54:09;5.82;;;4.95;;
72569;SDS011;60594;50.204;8.844;2022-12-18T00:56:36;5.55;;;3.78;;
72569;SDS011;60594;50.204;8.844;2022-12-18T00:59:03;6.85;;;5.50;;
72569;SDS011;60594;50.204;8.844;2022-12-18T01:01:31;5.13;;;3.05;;
72569;SDS011;60594;50.204;8.844;2022-12-18T01:03:59;6.38;;;3.33;;
72569;SDS011;60594;50.204;8.844;2022-12-18T01:06:27;7.07;;;3.33;;
72569;SDS011;60594;50.204;8.844;2022-12-18T01:08:53;5.38;;;4.05;;
72569;SDS011;60594;50.204;8.844;2022-12-18T01:11:20;5.80;;;4.60;;
72569;SDS011;60594;50.204;8.844;2022-12-18T01:13:47;5.03;;;4.63;;
72569;SDS011;60594;50.204;8.844;2022-12-18T01:16:15;6.07;;;4.60;;
72569;SDS011;60594;50.204;8.844;2022-12-18T01:18:43;9.65;;;5.22;;
72569;SDS011;60594;50.204;8.844;2022-12-18T01:21:11;8.90;;;4.55;;
72569;SDS011;60594;50.204;8.844;2022-12-18T01:23:39;6.75;;;3.58;;
72569;SDS011;60594;50.204;8.844;2022-12-18T01:26:07;3.00;;;2.50;;
72569;SDS011;60594;50.204;8.844;2022-12-18T01:28:35;2.42;;;1.85;;
72569;SDS011;60594;50.204;8.844;2022-12-18T01:31:12;3.65;;;2.45;;
72569;SDS011;60594;50.204;8.844;2022-12-18T01:33:40;4.40;;;4.00;;
72569;SDS011;60594;50.204;8.844;2022-12-18T01:36:07;10.65;;;5.00;;
72569;SDS011;60594;50.204;8.844;2022-12-18T01:38:34;6.95;;;4.63;;
72569;SDS011;60594;50.204;8.844;2022-12-18T01:41:01;3.05;;;2.65;;
72569;SDS011;60594;50.204;8.844;2022-12-18T01:43:40;3.78;;;3.10;;
72569;SDS011;60594;50.204;8.844;2022-12-18T01:46:09;6.95;;;4.00;;
72569;SDS011;60594;50.204;8.844;2022-12-18T01:48:36;5.60;;;5.10;;
72569;SDS011;60594;50.204;8.844;2022-12-18T01:51:04;10.73;;;3.40;;
72569;SDS011;60594;50.204;8.844;2022-12-18T01:53:32;4.80;;;3.33;;
72569;SDS011;60594;50.204;8.844;2022-12-18T01:55:58;8.55;;;5.85;;
72569;SDS011;60594;50.204;8.844;2022-12-18T01:58:34;5.50;;;3.65;;
72569;SDS011;60594;50.204;8.844;2022-12-18T02:03:34;2.83;;;2.00;;
72569;SDS011;60594;50.204;8.844;2022-12-18T02:06:03;5.47;;;4.38;;
72569;SDS011;60594;50.204;8.844;2022-12-18T02:08:48;5.65;;;4.47;;
72569;SDS011;60594;50.204;8.844;2022-12-18T02:14:28;6.40;;;4.68;;
72569;SDS011;60594;50.204;8.844;2022-12-18T02:17:11;7.38;;;2.78;;
72569;SDS011;60594;50.204;8.844;2022-12-18T02:22:35;2.45;;;1.95;;
72569;SDS011;60594;50.204;8.844;2022-12-18T02:28:53;6.13;;;4.15;;
72569;SDS011;60594;50.204;8.844;2022-12-18T02:31:29;4.05;;;3.65;;
72569;SDS011;60594;50.204;8.844;2022-12-18T02:34:02;6.15;;;4.10;;
72569;SDS011;60594;50.204;8.844;2022-12-18T02:36:36;6.28;;;4.65;;
72569;SDS011;60594;50.204;8.844;2022-12-18T02:39:07;3.25;;;2.20;;
72569;SDS011;60594;50.204;8.844;2022-12-18T02:41:40;5.53;;;3.38;;
72569;SDS011;60594;50.204;8.844;2022-12-18T02:44:11;5.15;;;4.32;;
72569;SDS011;60594;50.204;8.844;2022-12-18T02:46:40;5.35;;;3.47;;
72569;SDS011;60594;50.204;8.844;2022-12-18T02:52:16;5.65;;;4.00;;
72569;SDS011;60594;50.204;8.844;2022-12-18T02:54:56;3.15;;;2.85;;
72569;SDS011;60594;50.204;8.844;2022-12-18T03:00:23;5.85;;;2.17;;
72569;SDS011;60594;50.204;8.844;2022-12-18T03:05:47;5.88;;;4.40;;
72569;SDS011;60594;50.204;8.844;2022-12-18T03:08:20;2.10;;;1.90;;
72569;SDS011;60594;50.204;8.844;2022-12-18T03:10:54;3.65;;;3.38;;
72569;SDS011;60594;50.204;8.844;2022-12-18T03:16:23;5.00;;;2.28;;
72569;SDS011;60594;50.204;8.844;2022-12-18T03:18:57;11.30;;;3.40;;
72569;SDS011;60594;50.204;8.844;2022-12-18T03:21:39;7.55;;;6.07;;
72569;SDS011;60594;50.204;8.844;2022-12-18T03:24:08;11.88;;;3.70;;
72569;SDS011;60594;50.204;8.844;2022-12-18T03:26:38;5.25;;;4.85;;
72569;SDS011;60594;50.204;8.844;2022-12-18T03:29:13;5.32;;;3.80;;
72569;SDS011;60594;50.204;8.844;2022-12-18T03:31:47;6.82;;;4.97;;
72569;SDS011;60594;50.204;8.844;2022-12-18T03:34:21;9.43;;;5.20;;
72569;SDS011;60594;50.204;8.844;2022-12-18T03:36:53;4.13;;;3.53;;
72569;SDS011;60594;50.204;8.844;2022-12-18T03:39:22;4.75;;;4.00;;
72569;SDS011;60594;50.204;8.844;2022-12-18T03:42:09;4.30;;;3.90;;
72569;SDS011;60594;50.204;8.844;2022-12-18T03:44:55;5.07;;;3.47;;
72569;SDS011;60594;50.204;8.844;2022-12-18T03:47:44;9.18;;;5.70;;
72569;SDS011;60594;50.204;8.844;2022-12-18T03:50:15;6.22;;;4.22;;
72569;SDS011;60594;50.204;8.844;2022-12-18T03:52:59;3.72;;;3.10;;
72569;SDS011;60594;50.204;8.844;2022-12-18T03:55:33;6.80;;;4.03;;
72569;SDS011;60594;50.204;8.844;2022-12-18T03:58:04;5.47;;;4.07;;
72569;SDS011;60594;50.204;8.844;2022-12-18T04:00:45;4.53;;;4.13;;
72569;SDS011;60594;50.204;8.844;2022-12-18T04:03:14;3.80;;;3.45;;
72569;SDS011;60594;50.204;8.844;2022-12-18T04:05:46;4.50;;;4.03;;
72569;SDS011;60594;50.204;8.844;2022-12-18T04:08:18;8.75;;;3.67;;
72569;SDS011;60594;50.204;8.844;2022-12-18T04:10:54;5.15;;;4.75;;
72569;SDS011;60594;50.204;8.844;2022-12-18T04:13:27;4.35;;;4.05;;
72569;SDS011;60594;50.204;8.844;2022-12-18T04:15:55;8.50;;;5.97;;
72569;SDS011;60594;50.204;8.844;2022-12-18T04:18:23;6.75;;;3.45;;
72569;SDS011;60594;50.204;8.844;2022-12-18T04:20:49;4.70;;;3.75;;
72569;SDS011;60594;50.204;8.844;2022-12-18T04:23:17;3.28;;;2.08;;
72569;SDS011;60594;50.204;8.844;2022-12-18T04:25:43;7.50;;;5.28;;
72569;SDS011;60594;50.204;8.844;2022-12-18T04:28:15;2.60;;;2.03;;
72569;SDS011;60594;50.204;8.844;2022-12-18T04:30:42;4.78;;;3.40;;
72569;SDS011;60594;50.204;8.844;2022-12-18T04:33:11;5.50;;;4.05;;
72569;SDS011;60594;50.204;8.844;2022-12-18T04:35:39;8.45;;;5.13;;
72569;SDS011;60594;50.204;8.844;2022-12-18T04:38:07;6.50;;;3.65;;
72569;SDS011;60594;50.204;8.844;2022-12-18T04:40:36;6.68;;;4.80;;
72569;SDS011;60594;50.204;8.844;2022-12-18T04:43:08;8.65;;;6.30;;
72569;SDS011;60594;50.204;8.844;2022-12-18T04:45:35;6.68;;;3.70;;
72569;SDS011;60594;50.204;8.844;2022-12-18T04:48:01;4.50;;;4.10;;
72569;SDS011;60594;50.204;8.844;2022-12-18T04:50:28;6.50;;;4.10;;
72569;SDS011;60594;50.204;8.844;2022-12-18T04:52:55;4.72;;;3.92;;
72569;SDS011;60594;50.204;8.844;2022-12-18T04:55:21;4.70;;;3.65;;
72569;SDS011;60594;50.204;8.844;2022-12-18T04:57:48;6.22;;;5.55;;
72569;SDS011;60594;50.204;8.844;2022-12-18T05:00:14;4.35;;;2.85;;
72569;SDS011;60594;50.204;8.844;2022-12-18T05:02:41;4.75;;;3.58;;
72569;SDS011;60594;50.204;8.844;2022-12-18T05:05:08;8.20;;;5.97;;
72569;SDS011;60594;50.204;8.844;2022-12-18T05:07:35;5.80;;;3.17;;
72569;SDS011;60594;50.204;8.844;2022-12-18T05:10:01;5.18;;;3.03;;
72569;SDS011;60594;50.204;8.844;2022-12-18T05:12:28;4.72;;;4.13;;
72569;SDS011;60594;50.204;8.844;2022-12-18T05:14:54;7.13;;;5.43;;
72569;SDS011;60594;50.204;8.844;2022-12-18T05:17:21;8.88;;;5.10;;
72569;SDS011;60594;50.204;8.844;2022-12-18T05:19:47;6.65;;;3.40;;
72569;SDS011;60594;50.204;8.844;2022-12-18T05:22:13;9.93;;;5.95;;
72569;SDS011;60594;50.204;8.844;2022-12-18T05:24:39;4.28;;;3.88;;
72569;SDS011;60594;50.204;8.844;2022-12-18T05:27:06;7.47;;;4.38;;
72569;SDS011;60594;50.204;8.844;2022-12-18T05:29:32;9.10;;;6.07;;
72569;SDS011;60594;50.204;8.844;2022-12-18T05:31:59;7.57;;;4.88;;
72569;SDS011;60594;50.204;8.844;2022-12-18T05:34:25;6.18;;;3.67;;
72569;SDS011;60594;50.204;8.844;2022-12-18T05:36:52;4.50;;;3.75;;
72569;SDS011;60594;50.204;8.844;2022-12-18T05:39:18;6.78;;;4.45;;
72569;SDS011;60594;50.204;8.844;2022-12-18T05:41:44;4.93;;;3.97;;
72569;SDS011;60594;50.204;8.844;2022-12-18T05:44:10;4.28;;;3.88;;
72569;SDS011;60594;50.204;8.844;2022-12-18T05:46:37;8.32;;;4.93;;
72569;SDS011;60594;50.204;8.844;2022-12-18T05:49:08;5.18;;;3.50;;
72569;SDS011;60594;50.204;8.844;2022-12-18T05:51:35;6.72;;;3.95;;
72569;SDS011;60594;50.204;8.844;2022-12-18T05:54:01;9.15;;;4.72;;
72569;SDS011;60594;50.204;8.844;2022-12-18T05:56:28;4.53;;;4.13;;
72569;SDS011;60594;50.204;8.844;2022-12-18T05:58:54;4.65;;;3.85;;
72569;SDS011;60594;50.204;8.844;2022-12-18T06:01:22;5.20;;;4.28;;
72569;SDS011;60594;50.204;8.844;2022-12-18T06:03:50;10.20;;;4.38;;
72569;SDS011;60594;50.204;8.844;2022-12-18T06:06:21;5.50;;;5.00;;
72569;SDS011;60594;50.204;8.844;2022-12-18T06:08:49;4.85;;;3.47;;
72569;SDS011;60594;50.204;8.844;2022-12-18T06:11:17;3.67;;;3.38;;
72569;SDS011;60594;50.204;8.844;2022-12-18T06:13:45;6.93;;;4.55;;
72569;SDS011;60594;50.204;8.844;2022-12-18T06:16:12;5.97;;;4.32;;
72569;SDS011;60594;50.204;8.844;2022-12-18T06:18:39;5.88;;;5.38;;
72569;SDS011;60594;50.204;8.844;2022-12-18T06:21:08;10.02;;;5.65;;
72569;SDS011;60594;50.204;8.844;2022-12-18T06:23:34;5.70;;;3.13;;
72569;SDS011;60594;50.204;8.844;2022-12-18T06:26:05;7.80;;;3.72;;
72569;SDS011;60594;50.204;8.844;2022-12-18T06:28:33;6.40;;;5.20;;
72569;SDS011;60594;50.204;8.844;2022-12-18T06:30:59;4.82;;;4.43;;
72569;SDS011;60594;50.204;8.844;2022-12-18T06:33:26;6.68;;;4.50;;
72569;SDS011;60594;50.204;8.844;2022-12-18T06:35:54;5.53;;;2.50;;
72569;SDS011;60594;50.204;8.844;2022-12-18T06:38:25;2.22;;;2.03;;
72569;SDS011;60594;50.204;8.844;2022-12-18T06:40:51;5.38;;;3.38;;
72569;SDS011;60594;50.204;8.844;2022-12-18T06:43:18;4.28;;;3.60;;
72569;SDS011;60594;50.204;8.844;2022-12-18T06:45:44;7.82;;;5.55;;
72569;SDS011;60594;50.204;8.844;2022-12-18T06:48:12;4.50;;;3.60;;
72569;SDS011;60594;50.204;8.844;2022-12-18T06:50:41;5.38;;;4.57;;
72569;SDS011;60594;50.204;8.844;2022-12-18T06:53:08;6.78;;;5.03;;
72569;SDS011;60594;50.204;8.844;2022-12-18T06:55:34;7.60;;;2.15;;
72569;SDS011;60594;50.204;8.844;2022-12-18T06:58:01;9.45;;;6.30;;
72569;SDS011;60594;50.204;8.844;2022-12-18T07:00:27;6.70;;;4.18;;
72569;SDS011;60594;50.204;8.844;2022-12-18T07:02:53;5.43;;;4.07;;
72569;SDS011;60594;50.204;8.844;2022-12-18T07:05:20;3.60;;;3.20;;
72569;SDS011;60594;50.204;8.844;2022-12-18T07:07:46;7.03;;;4.68;;
72569;SDS011;60594;50.204;8.844;2022-12-18T07:10:12;4.88;;;4.10;;
72569;SDS011;60594;50.204;8.844;2022-12-18T07:12:39;6.78;;;6.15;;
72569;SDS011;60594;50.204;8.844;2022-12-18T07:15:05;5.05;;;4.65;;
72569;SDS011;60594;50.204;8.844;2022-12-18T07:17:32;5.82;;;5.00;;
72569;SDS011;60594;50.204;8.844;2022-12-18T07:19:59;13.52;;;5.38;;
72569;SDS011;60594;50.204;8.844;2022-12-18T07:22:25;8.20;;;4.38;;
72569;SDS011;60594;50.204;8.844;2022-12-18T07:24:52;5.28;;;4.78;;
72569;SDS011;60594;50.204;8.844;2022-12-18T07:27:18;5.63;;;5.15;;
72569;SDS011;60594;50.204;8.844;2022-12-18T07:29:45;5.88;;;5.07;;
72569;SDS011;60594;50.204;8.844;2022-12-18T07:32:11;5.72;;;4.28;;
72569;SDS011;60594;50.204;8.844;2022-12-18T07:34:37;6.45;;;5.78;;
72569;SDS011;60594;50.204;8.844;2022-12-18T07:37:03;10.90;;;5.47;;
72569;SDS011;60594;50.204;8.844;2022-12-18T07:39:30;7.72;;;4.85;;
72569;SDS011;60594;50.204;8.844;2022-12-18T07:41:57;5.60;;;4.70;;
72569;SDS011;60594;50.204;8.844;2022-12-18T07:44:42;5.07;;;3.63;;
72569;SDS011;60594;50.204;8.844;2022-12-18T07:47:08;6.32;;;4.88;;
72569;SDS011;60594;50.204;8.844;2022-12-18T07:49:35;11.63;;;5.18;;
72569;SDS011;60594;50.204;8.844;2022-12-18T07:52:01;6.57;;;4.28;;
72569;SDS011;60594;50.204;8.844;2022-12-18T07:54:27;10.48;;;4.10;;
72569;SDS011;60594;50.204;8.844;2022-12-18T07:56:54;7.68;;;4.97;;
72569;SDS011;60594;50.204;8.844;2022-12-18T07:59:20;7.65;;;4.00;;
72569;SDS011;60594;50.204;8.844;2022-12-18T08:01:46;6.78;;;5.43;;
72569;SDS011;60594;50.204;8.844;2022-12-18T08:04:13;5.75;;;4.65;;
72569;SDS011;60594;50.204;8.844;2022-12-18T08:06:39;6.53;;;5.18;;
72569;SDS011;60594;50.204;8.844;2022-12-18T08:09:05;6.78;;;4.38;;
72569;SDS011;60594;50.204;8.844;2022-12-18T08:11:31;9.85;;;5.70;;
72569;SDS011;60594;50.204;8.844;2022-12-18T08:13:58;5.22;;;3.78;;
72569;SDS011;60594;50.204;8.844;2022-12-18T08:16:24;5.97;;;4.90;;
72569;SDS011;60594;50.204;8.844;2022-12-18T08:18:52;11.65;;;4.25;;
72569;SDS011;60594;50.204;8.844;2022-12-18T08:21:24;4.63;;;3.83;;
72569;SDS011;60594;50.204;8.844;2022-12-18T08:23:52;6.03;;;5.32;;
72569;SDS011;60594;50.204;8.844;2022-12-18T08:26:20;7.60;;;4.97;;
72569;SDS011;60594;50.204;8.844;2022-12-18T08:28:47;10.38;;;6.00;;
72569;SDS011;60594;50.204;8.844;2022-12-18T08:31:14;8.95;;;5.20;;
72569;SDS011;60594;50.204;8.844;2022-12-18T08:33:40;7.78;;;6.47;;
72569;SDS011;60594;50.204;8.844;2022-12-18T08:36:08;7.45;;;5.07;;
72569;SDS011;60594;50.204;8.844;2022-12-18T08:38:35;5.90;;;5.22;;
72569;SDS011;60594;50.204;8.844;2022-12-18T08:41:06;9.75;;;7.72;;
72569;SDS011;60594;50.204;8.844;2022-12-18T08:43:35;15.57;;;8.38;;
72569;SDS011;60594;50.204;8.844;2022-12-18T08:46:21;6.97;;;6.32;;
72569;SDS011;60594;50.204;8.844;2022-12-18T08:48:50;6.72;;;4.45;;
72569;SDS011;60594;50.204;8.844;2022-12-18T08:51:17;5.70;;;5.10;;
72569;SDS011;60594;50.204;8.844;2022-12-18T08:53:43;9.50;;;5.13;;
72569;SDS011;60594;50.204;8.844;2022-12-18T08:56:13;4.82;;;4.13;;
72569;SDS011;60594;50.204;8.844;2022-12-18T08:58:40;6.22;;;4.63;;
72569;SDS011;60594;50.204;8.844;2022-12-18T09:01:08;10.05;;;5.13;;
72569;SDS011;60594;50.204;8.844;2022-12-18T09:03:36;9.32;;;5.80;;
72569;SDS011;60594;50.204;8.844;2022-12-18T09:06:03;6.47;;;3.97;;
72569;SDS011;60594;50.204;8.844;2022-12-18T09:08:30;5.70;;;5.05;;
72569;SDS011;60594;50.204;8.844;2022-12-18T09:10:56;6.57;;;4.65;;
72569;SDS011;60594;50.204;8.844;2022-12-18T09:13:22;5.78;;;5.18;;
72569;SDS011;60594;50.204;8.844;2022-12-18T09:15:50;4.93;;;4.43;;
72569;SDS011;60594;50.204;8.844;2022-12-18T09:18:19;6.25;;;4.50;;
72569;SDS011;60594;50.204;8.844;2022-12-18T09:20:46;9.95;;;6.15;;
72569;SDS011;60594;50.204;8.844;2022-12-18T09:23:13;8.65;;;5.57;;
72569;SDS011;60594;50.204;8.844;2022-12-18T09:25:40;9.35;;;5.32;;
72569;SDS011;60594;50.204;8.844;2022-12-18T09:28:11;7.68;;;5.07;;
72569;SDS011;60594;50.204;8.844;2022-12-18T09:30:39;9.73;;;6.32;;
72569;SDS011;60594;50.204;8.844;2022-12-18T09:33:11;7.22;;;4.70;;
72569;SDS011;60594;50.204;8.844;2022-12-18T09:35:37;6.47;;;5.03;;
72569;SDS011;60594;50.204;8.844;2022-12-18T09:38:05;5.00;;;4.47;;
72569;SDS011;60594;50.204;8.844;2022-12-18T09:40:36;5.57;;;4.28;;
72569;SDS011;60594;50.204;8.844;2022-12-18T09:43:33;5.68;;;4.72;;
72569;SDS011;60594;50.204;8.844;2022-12-18T09:46:06;5.10;;;4.60;;
72569;SDS011;60594;50.204;8.844;2022-12-18T09:48:37;7.07;;;4.80;;
72569;SDS011;60594;50.204;8.844;2022-12-18T09:51:17;4.70;;;4.25;;
72569;SDS011;60594;50.204;8.844;2022-12-18T09:53:53;9.15;;;6.80;;
72569;SDS011;60594;50.204;8.844;2022-12-18T09:56:25;10.27;;;4.20;;
72569;SDS011;60594;50.204;8.844;2022-12-18T09:58:58;9.45;;;5.35;;
72569;SDS011;60594;50.204;8.844;2022-12-18T10:01:26;10.70;;;5.78;;
72569;SDS011;60594;50.204;8.844;2022-12-18T10:03:54;7.70;;;5.18;;
72569;SDS011;60594;50.204;8.844;2022-12-18T10:09:24;8.80;;;6.18;;
72569;SDS011;60594;50.204;8.844;2022-12-18T10:15:43;11.20;;;7.07;;
72569;SDS011;60594;50.204;8.844;2022-12-18T10:18:28;8.55;;;6.78;;
72569;SDS011;60594;50.204;8.844;2022-12-18T10:21:18;16.83;;;7.30;;
72569;SDS011;60594;50.204;8.844;2022-12-18T10:23:53;5.50;;;4.15;;
72569;SDS011;60594;50.204;8.844;2022-12-18T10:26:36;15.63;;;7.10;;
72569;SDS011;60594;50.204;8.844;2022-12-18T10:29:06;8.35;;;6.82;;
72569;SDS011;60594;50.204;8.844;2022-12-18T10:31:38;13.38;;;7.35;;
72569;SDS011;60594;50.204;8.844;2022-12-18T10:34:07;12.23;;;5.80;;
72569;SDS011;60594;50.204;8.844;2022-12-18T10:36:36;6.78;;;6.18;;
72569;SDS011;60594;50.204;8.844;2022-12-18T10:39:15;8.35;;;5.32;;
72569;SDS011;60594;50.204;8.844;2022-12-18T10:41:42;12.43;;;7.32;;
72569;SDS011;60594;50.204;8.844;2022-12-18T10:44:12;16.00;;;8.35;;
72569;SDS011;60594;50.204;8.844;2022-12-18T10:46:49;18.98;;;9.88;;
72569;SDS011;60594;50.204;8.844;2022-12-18T10:49:19;8.60;;;7.57;;
72569;SDS011;60594;50.204;8.844;2022-12-18T10:51:48;13.27;;;8.63;;
72569;SDS011;60594;50.204;8.844;2022-12-18T10:54:16;11.57;;;8.05;;
72569;SDS011;60594;50.204;8.844;2022-12-18T10:56:45;11.82;;;7.75;;
72569;SDS011;60594;50.204;8.844;2022-12-18T10:59:13;15.70;;;8.05;;
72569;SDS011;60594;50.204;8.844;2022-12-18T11:04:27;11.18;;;6.75;;
72569;SDS011;60594;50.204;8.844;2022-12-18T11:06:56;12.80;;;7.88;;
72569;SDS011;60594;50.204;8.844;2022-12-18T11:09:24;9.38;;;6.18;;
72569;SDS011;60594;50.204;8.844;2022-12-18T11:11:53;13.30;;;5.85;;
72569;SDS011;60594;50.204;8.844;2022-12-18T11:14:22;9.38;;;6.07;;
72569;SDS011;60594;50.204;8.844;2022-12-18T11:16:51;16.10;;;7.05;;
72569;SDS011;60594;50.204;8.844;2022-12-18T11:19:28;13.65;;;9.23;;
72569;SDS011;60594;50.204;8.844;2022-12-18T11:22:01;12.20;;;7.90;;
72569;SDS011;60594;50.204;8.844;2022-12-18T11:24:50;6.32;;;5.38;;
72569;SDS011;60594;50.204;8.844;2022-12-18T11:27:23;10.10;;;6.30;;
72569;SDS011;60594;50.204;8.844;2022-12-18T11:29:50;9.27;;;5.63;;
72569;SDS011;60594;50.204;8.844;2022-12-18T11:32:23;17.27;;;8.18;;
72569;SDS011;60594;50.204;8.844;2022-12-18T11:38:44;9.82;;;6.18;;
72569;SDS011;60594;50.204;8.844;2022-12-18T11:43:32;6.32;;;5.28;;
72569;SDS011;60594;50.204;8.844;2022-12-18T11:46:15;15.43;;;7.25;;
72569;SDS011;60594;50.204;8.844;2022-12-18T11:48:58;10.35;;;5.88;;
72569;SDS011;60594;50.204;8.844;2022-12-18T11:51:33;11.73;;;7.70;;
72569;SDS011;60594;50.204;8.844;2022-12-18T11:54:10;17.17;;;8.50;;
72569;SDS011;60594;50.204;8.844;2022-12-18T11:56:43;6.07;;;5.45;;
72569;SDS011;60594;50.204;8.844;2022-12-18T11:59:45;11.57;;;6.72;;
72569;SDS011;60594;50.204;8.844;2022-12-18T12:02:30;10.90;;;6.15;;
72569;SDS011;60594;50.204;8.844;2022-12-18T12:21:39;11.07;;;7.13;;
72569;SDS011;60594;50.204;8.844;2022-12-18T12:26:50;9.73;;;7.05;;
72569;SDS011;60594;50.204;8.844;2022-12-18T12:34:46;10.43;;;6.10;;
72569;SDS011;60594;50.204;8.844;2022-12-18T12:42:38;10.82;;;6.68;;
72569;SDS011;60594;50.204;8.844;2022-12-18T12:45:34;11.48;;;7.60;;
72569;SDS011;60594;50.204;8.844;2022-12-18T12:48:05;14.27;;;6.53;;
72569;SDS011;60594;50.204;8.844;2022-12-18T12:50:39;15.18;;;7.90;;
72569;SDS011;60594;50.204;8.844;2022-12-18T12:53:07;8.02;;;5.43;;
72569;SDS011;60594;50.204;8.844;2022-12-18T13:02:10;8.02;;;4.18;;
72569;SDS011;60594;50.204;8.844;2022-12-18T13:05:02;6.45;;;5.90;;
72569;SDS011;60594;50.204;8.844;2022-12-18T13:07:37;9.95;;;6.30;;
72569;SDS011;60594;50.204;8.844;2022-12-18T13:15:27;16.98;;;8.35;;
72569;SDS011;60594;50.204;8.844;2022-12-18T13:20:49;9.00;;;7.35;;
72569;SDS011;60594;50.204;8.844;2022-12-18T13:23:38;9.43;;;5.78;;
72569;SDS011;60594;50.204;8.844;2022-12-18T13:31:13;13.43;;;5.97;;
72569;SDS011;60594;50.204;8.844;2022-12-18T13:33:43;11.00;;;7.55;;
72569;SDS011;60594;50.204;8.844;2022-12-18T13:44:13;11.45;;;6.65;;
72569;SDS011;60594;50.204;8.844;2022-12-18T13:46:53;6.55;;;4.13;;
72569;SDS011;60594;50.204;8.844;2022-12-18T13:49:22;12.85;;;4.95;;
72569;SDS011;60594;50.204;8.844;2022-12-18T13:51:52;12.63;;;5.55;;
72569;SDS011;60594;50.204;8.844;2022-12-18T13:57:24;15.13;;;7.13;;
72569;SDS011;60594;50.204;8.844;2022-12-18T14:02:57;8.20;;;7.28;;
72569;SDS011;60594;50.204;8.844;2022-12-18T14:08:09;13.70;;;8.57;;
72569;SDS011;60594;50.204;8.844;2022-12-18T14:10:43;24.60;;;12.63;;
72569;SDS011;60594;50.204;8.844;2022-12-18T14:13:23;19.70;;;9.40;;
72569;SDS011;60594;50.204;8.844;2022-12-18T14:15:55;19.60;;;9.82;;
72569;SDS011;60594;50.204;8.844;2022-12-18T14:18:29;23.20;;;11.45;;
72569;SDS011;60594;50.204;8.844;2022-12-18T14:21:02;15.38;;;9.77;;
72569;SDS011;60594;50.204;8.844;2022-12-18T14:23:32;13.93;;;9.05;;
72569;SDS011;60594;50.204;8.844;2022-12-18T14:28:50;14.30;;;7.07;;
72569;SDS011;60594;50.204;8.844;2022-12-18T14:31:35;21.20;;;11.27;;
72569;SDS011;60594;50.204;8.844;2022-12-18T14:34:02;16.55;;;7.57;;
72569;SDS011;60594;50.204;8.844;2022-12-18T14:36:31;21.30;;;9.43;;
72569;SDS011;60594;50.204;8.844;2022-12-18T14:38:57;11.75;;;7.75;;
72569;SDS011;60594;50.204;8.844;2022-12-18T14:41:25;11.35;;;8.38;;
72569;SDS011;60594;50.204;8.844;2022-12-18T14:43:53;11.82;;;7.40;;
72569;SDS011;60594;50.204;8.844;2022-12-18T14:49:04;13.20;;;7.38;;
72569;SDS011;60594;50.204;8.844;2022-12-18T14:51:48;9.23;;;6.32;;
72569;SDS011;60594;50.204;8.844;2022-12-18T14:54:17;8.00;;;6.30;;
72569;SDS011;60594;50.204;8.844;2022-12-18T14:56:47;10.88;;;7.85;;
72569;SDS011;60594;50.204;8.844;2022-12-18T14:59:26;15.27;;;9.27;;
72569;SDS011;60594;50.204;8.844;2022-12-18T15:04:47;24.05;;;14.15;;
72569;SDS011;60594;50.204;8.844;2022-12-18T15:07:26;13.45;;;8.32;;
72569;SDS011;60594;50.204;8.844;2022-12-18T15:10:01;13.45;;;7.15;;
72569;SDS011;60594;50.204;8.844;2022-12-18T15:18:14;19.95;;;9.55;;
72569;SDS011;60594;50.204;8.844;2022-12-18T15:23:29;12.32;;;6.90;;
72569;SDS011;60594;50.204;8.844;2022-12-18T15:26:04;17.02;;;7.57;;
72569;SDS011;60594;50.204;8.844;2022-12-18T15:29:15;17.55;;;9.20;;
72569;SDS011;60594;50.204;8.844;2022-12-18T15:31:31;11.27;;;8.93;;
72569;SDS011;60594;50.204;8.844;2022-12-18T15:36:39;12.80;;;6.28;;
72569;SDS011;60594;50.204;8.844;2022-12-18T15:39:10;12.18;;;7.22;;
72569;SDS011;60594;50.204;8.844;2022-12-18T15:41:39;18.35;;;7.40;;
72569;SDS011;60594;50.204;8.844;2022-12-18T15:44:23;13.52;;;7.93;;
72569;SDS011;60594;50.204;8.844;2022-12-18T15:46:50;9.70;;;7.95;;
72569;SDS011;60594;50.204;8.844;2022-12-18T15:49:19;11.65;;;6.72;;
72569;SDS011;60594;50.204;8.844;2022-12-18T15:51:47;18.73;;;6.43;;
72569;SDS011;60594;50.204;8.844;2022-12-18T15:57:11;13.90;;;5.45;;
72569;SDS011;60594;50.204;8.844;2022-12-18T15:59:51;12.75;;;7.57;;
72569;SDS011;60594;50.204;8.844;2022-12-18T16:02:20;13.98;;;6.63;;
72569;SDS011;60594;50.204;8.844;2022-12-18T16:04:51;11.50;;;6.45;;
72569;SDS011;60594;50.204;8.844;2022-12-18T16:07:19;9.15;;;6.78;;
72569;SDS011;60594;50.204;8.844;2022-12-18T16:09:46;11.25;;;7.28;;
72569;SDS011;60594;50.204;8.844;2022-12-18T16:12:22;10.20;;;7.07;;
72569;SDS011;60594;50.204;8.844;2022-12-18T16:14:51;9.40;;;4.88;;
72569;SDS011;60594;50.204;8.844;2022-12-18T16:17:18;7.60;;;5.88;;
72569;SDS011;60594;50.204;8.844;2022-12-18T16:19:45;11.68;;;6.63;;
72569;SDS011;60594;50.204;8.844;2022-12-18T16:22:17;11.05;;;6.03;;
72569;SDS011;60594;50.204;8.844;2022-12-18T16:24:50;12.85;;;6.47;;
72569;SDS011;60594;50.204;8.844;2022-12-18T16:27:18;11.38;;;6.43;;
72569;SDS011;60594;50.204;8.844;2022-12-18T16:29:48;12.35;;;7.30;;
72569;SDS011;60594;50.204;8.844;2022-12-18T16:32:16;17.33;;;10.18;;
72569;SDS011;60594;50.204;8.844;2022-12-18T16:34:45;14.98;;;8.25;;
72569;SDS011;60594;50.204;8.844;2022-12-18T16:37:13;15.95;;;9.35;;
72569;SDS011;60594;50.204;8.844;2022-12-18T16:39:43;15.60;;;8.93;;
72569;SDS011;60594;50.204;8.844;2022-12-18T16:42:15;14.32;;;8.90;;
72569;SDS011;60594;50.204;8.844;2022-12-18T16:44:45;18.33;;;8.60;;
72569;SDS011;60594;50.204;8.844;2022-12-18T16:47:15;10.35;;;7.63;;
72569;SDS011;60594;50.204;8.844;2022-12-18T16:49:44;14.18;;;7.80;;
72569;SDS011;60594;50.204;8.844;2022-12-18T16:52:13;12.63;;;8.25;;
72569;SDS011;60594;50.204;8.844;2022-12-18T16:54:42;10.75;;;7.55;;
72569;SDS011;60594;50.204;8.844;2022-12-18T16:57:15;13.65;;;9.48;;
72569;SDS011;60594;50.204;8.844;2022-12-18T16:59:44;15.32;;;7.88;;
72569;SDS011;60594;50.204;8.844;2022-12-18T17:02:14;14.65;;;8.93;;
72569;SDS011;60594;50.204;8.844;2022-12-18T17:04:43;15.20;;;7.93;;
72569;SDS011;60594;50.204;8.844;2022-12-18T17:07:10;18.02;;;9.15;;
72569;SDS011;60594;50.204;8.844;2022-12-18T17:09:40;11.93;;;8.88;;
72569;SDS011;60594;50.204;8.844;2022-12-18T17:12:07;11.70;;;8.55;;
72569;SDS011;60594;50.204;8.844;2022-12-18T17:14:36;14.80;;;7.80;;